Bavaria

Go HERE for most recent data if this page is not up to date.

Jump to table bottom
Date Time Temp F RH % AVG Wind Max Wind Wind Dir 24 Snow Depth
*02/06/23 08 12.5 86 5 13 NE - 61 1.9 -20.4
*02/06/23 07 12.5 86 7 16 SE - 135 2.4 76.5
*02/06/23 06 13.8 86 5 13 NE - 59 2.2 76.0
*02/06/23 05 13.9 86 4 14 E - 81 -0.4 75.1
*02/06/23 04 13.9 86 6 15 SW - 209 0.6 74.3
*02/06/23 03 14.0 86 7 18 SE - 114 0.3 74.8
*02/06/23 02 14.2 87 11 19 W - 284 0.4 73.5
*02/06/23 01 14.2 87 9 15 W - 273 0.2 72.1
*02/06/23 00 14.4 87 13 19 SW - 247 0.2 143.3
*02/05/23 23 14.6 87 12 22 SW - 245 0.2 143.3
*02/05/23 22 15.0 87 12 19 W - 276 0.2 143.3
*02/05/23 21 15.6 87 11 17 SW - 222 0.2 143.3
*02/05/23 20 16.1 88 14 21 W - 275 0.1 143.3
*02/05/23 19 16.7 87 16 22 W - 264 0.2 71.9
*02/05/23 18 17.8 82 13 20 SW - 231 0.0 71.9
*02/05/23 17 17.9 82 14 20 W - 255 0.0 72.0
*02/05/23 16 18.4 86 10 16 NW - 294 0.0 143.3
*02/05/23 15 19.2 82 6 13 SW - 231 0.1 143.3
*02/05/23 14 19.6 83 7 16 S - 159 0.2 70.3
*02/05/23 13 19.4 83 10 19 W - 249 0.0 70.7
*02/05/23 12 21.9 69 11 20 W - 251 0.0 70.8
*02/05/23 11 21.8 66 10 21 SW - 210 0.0 70.8
*02/05/23 10 21.4 60 15 22 SW - 229 0.2 70.8
*02/05/23 09 21.5 57 10 21 SW - 214 0.1 70.9
*02/05/23 08 23.6 46 10 17 W - 264 0.2 71.0
*02/05/23 07 22.5 45 7 21 W - 258 0.2 71.1
*02/05/23 06 22.9 43 8 19 W - 265 0.2 71.1
*02/05/23 05 22.6 49 7 14 W - 260 0.2 71.2
*02/05/23 04 22.5 33 7 15 W - 260 0.2 71.3
*02/05/23 03 20.7 38 8 17 W - 267 0.2 71.3
*02/05/23 02 21.1 35 11 19 W - 266 0.1 71.3
*02/05/23 01 20.4 43 7 19 NW - 300 0.2 71.6
*02/05/23 00 19.7 64 3 8 NW - 310 0.3 71.6
.